createdAt,value
2019-04-22T00:01:50.289Z,18.60
2019-04-22T00:04:33.811Z,19.13
2019-04-22T00:07:17.447Z,16.40
2019-04-22T00:09:46.117Z,17.50
2019-04-22T00:12:19.515Z,18.43
2019-04-22T00:14:42.103Z,16.37
2019-04-22T00:17:25.100Z,18.40
2019-04-22T00:19:55.505Z,18.77
2019-04-22T00:22:26.135Z,18.60
2019-04-22T00:24:51.268Z,16.90
2019-04-22T00:27:29.409Z,17.60
2019-04-22T00:30:13.767Z,16.77
2019-04-22T00:32:39.773Z,17.73
2019-04-22T00:35:05.993Z,19.03
2019-04-22T00:37:49.241Z,18.63
2019-04-22T00:40:09.107Z,18.83
2019-04-22T00:42:45.636Z,18.87
2019-04-22T00:45:13.088Z,19.20
2019-04-22T00:47:41.121Z,18.50
2019-04-22T00:50:20.352Z,18.13
2019-04-22T00:52:43.725Z,19.80
2019-04-22T00:55:16.369Z,20.50
2019-04-22T00:57:41.537Z,21.33
2019-04-22T01:00:23.019Z,20.33
2019-04-22T01:02:47.710Z,20.87
2019-04-22T01:05:22.055Z,21.97
2019-04-22T01:07:42.962Z,21.97
2019-04-22T01:10:20.627Z,20.90
2019-04-22T01:15:23.328Z,21.47
2019-04-22T01:17:52.480Z,21.20
2019-04-22T01:20:52.381Z,21.70
2019-04-22T01:22:46.167Z,21.53
2019-04-22T01:25:18.906Z,21.07
2019-04-22T01:27:44.637Z,21.77
2019-04-22T01:30:10.950Z,24.27
2019-04-22T01:32:52.067Z,22.90
2019-04-22T01:35:34.874Z,21.43
2019-04-22T01:38:07.786Z,22.27
2019-04-22T01:40:46.854Z,23.43
2019-04-22T01:43:16.862Z,22.93
2019-04-22T01:45:49.800Z,23.87
2019-04-22T01:48:17.613Z,21.57
2019-04-22T01:50:49.678Z,23.73
2019-04-22T01:53:24.560Z,24.97
2019-04-22T01:55:55.075Z,24.57
2019-04-22T01:58:17.145Z,24.93
2019-04-22T02:00:56.131Z,24.27
2019-04-22T02:03:26.467Z,23.80
2019-04-22T02:05:59.226Z,24.80
2019-04-22T02:08:33.362Z,24.63
2019-04-22T02:10:54.947Z,26.63
2019-04-22T02:13:31.914Z,24.87
2019-04-22T02:16:00.259Z,23.90
2019-04-22T02:18:35.890Z,24.10
2019-04-22T02:20:54.539Z,26.43
2019-04-22T02:41:41.544Z,25.63
2019-04-22T02:46:45.135Z,28.30
2019-04-22T02:49:11.622Z,27.80
2019-04-22T02:51:32.784Z,29.23
2019-04-22T02:56:36.021Z,30.40
2019-04-22T02:59:12.403Z,29.87
2019-04-22T03:02:09.328Z,28.97
2019-04-22T03:04:09.386Z,31.43
2019-04-22T03:06:42.203Z,32.03
2019-04-22T03:09:16.361Z,31.37
2019-04-22T03:12:02.520Z,30.20
2019-04-22T03:29:10.606Z,31.03
2019-04-22T03:35:13.361Z,30.57
2019-04-22T03:39:38.120Z,31.33
2019-04-22T03:42:05.706Z,29.70
2019-04-22T03:44:30.986Z,31.10
2019-04-22T04:04:43.211Z,33.83
2019-04-22T04:12:14.279Z,31.83
2019-04-22T04:14:47.178Z,33.27
2019-04-22T04:20:05.750Z,32.73
2019-04-22T04:22:27.004Z,33.43
2019-04-22T04:27:49.117Z,32.87
2019-04-22T04:29:56.116Z,34.10
2019-04-22T04:32:27.398Z,32.40
2019-04-22T04:35:07.280Z,31.67
2019-04-22T04:37:38.767Z,31.00
2019-04-22T04:39:59.777Z,31.73
2019-04-22T04:42:33.279Z,32.27
2019-04-22T04:45:10.972Z,33.77
2019-04-22T04:47:35.723Z,33.33
2019-04-22T04:49:54.417Z,32.87
2019-04-22T04:54:59.440Z,33.03
2019-04-22T04:57:43.464Z,34.20
2019-04-22T05:02:33.105Z,32.80
2019-04-22T05:05:12.106Z,34.07
2019-04-22T05:15:18.393Z,32.50
2019-04-22T05:17:47.333Z,34.40
2019-04-22T05:22:48.540Z,34.48
2019-04-22T05:25:17.842Z,35.67
2019-04-22T05:30:26.866Z,35.50
2019-04-22T05:32:46.200Z,33.50
2019-04-22T05:35:14.464Z,33.00
2019-04-22T05:37:40.420Z,33.90
2019-04-22T05:42:46.383Z,37.23
2019-04-22T05:45:17.626Z,35.50
2019-04-22T05:47:50.729Z,36.80
2019-04-22T05:50:13.020Z,35.83
2019-04-22T05:52:47.112Z,37.67
2019-04-22T05:55:23.775Z,37.13
2019-04-22T05:57:51.025Z,35.67
2019-04-22T06:00:25.575Z,36.70
2019-04-22T06:02:53.618Z,36.87
2019-04-22T06:05:17.320Z,37.17
2019-04-22T06:07:50.294Z,35.03
2019-04-22T06:12:43.016Z,38.70
2019-04-22T06:15:18.327Z,38.23
2019-04-22T06:17:57.398Z,39.40
2019-04-22T06:20:21.855Z,38.60
2019-04-22T06:25:31.332Z,37.47
2019-04-22T06:28:00.230Z,41.90
2019-04-22T06:30:23.219Z,41.17
2019-04-22T06:32:53.417Z,39.37
2019-04-22T06:35:33.298Z,39.93
2019-04-22T06:38:19.169Z,40.27
2019-04-22T06:40:29.558Z,40.33
2019-04-22T06:42:57.626Z,39.40
2019-04-22T06:45:26.368Z,41.80
2019-04-22T06:48:04.515Z,40.30
2019-04-22T06:50:31.493Z,40.07
2019-04-22T06:52:56.877Z,37.83
2019-04-22T06:55:27.122Z,38.03
2019-04-22T06:58:00.379Z,35.90
2019-04-22T07:00:24.491Z,32.83
2019-04-22T07:03:23.274Z,34.00
2019-04-22T07:05:27.548Z,29.43
2019-04-22T07:08:12.990Z,27.97
2019-04-22T07:12:58.308Z,29.43
2019-04-22T07:15:42.347Z,24.13
2019-04-22T07:20:33.293Z,27.43
2019-04-22T07:23:06.712Z,24.20
2019-04-22T07:25:32.789Z,23.47
2019-04-22T07:27:58.560Z,22.97
2019-04-22T07:30:26.407Z,21.03
2019-04-22T07:33:12.656Z,22.10
2019-04-22T07:38:05.757Z,23.83
2019-04-22T07:40:34.547Z,23.50
2019-04-22T07:43:07.326Z,23.73
2019-04-22T07:45:33.479Z,21.67
2019-04-22T07:48:15.244Z,22.73
2019-04-22T07:50:43.018Z,24.87
2019-04-22T07:52:58.628Z,22.63
2019-04-22T07:55:32.804Z,22.13
2019-04-22T07:58:05.434Z,25.30
2019-04-22T08:00:34.118Z,23.20
2019-04-22T08:03:09.305Z,21.50
2019-04-22T08:08:10.958Z,23.63
2019-04-22T08:10:40.311Z,21.40
2019-04-22T08:13:05.369Z,22.03
2019-04-22T08:15:40.096Z,22.07
2019-04-22T08:18:26.081Z,22.73
2019-04-22T08:20:39.113Z,20.10
2019-04-22T08:23:09.391Z,20.93
2019-04-22T08:25:40.290Z,21.43
2019-04-22T08:28:10.713Z,20.93
2019-04-22T08:30:40.830Z,18.47
2019-04-22T08:33:18.172Z,20.63
2019-04-22T08:35:56.739Z,21.03
2019-04-22T08:38:12.080Z,21.60
2019-04-22T08:40:44.117Z,22.37
2019-04-22T08:43:32.969Z,19.80
2019-04-22T08:45:48.005Z,22.13
2019-04-22T08:48:09.658Z,19.43
2019-04-22T08:50:47.046Z,21.33
2019-04-22T08:53:19.830Z,21.37
2019-04-22T08:55:52.008Z,19.93
2019-04-22T08:58:25.103Z,21.33
2019-04-22T09:00:52.908Z,21.87
2019-04-22T09:03:11.037Z,20.20
2019-04-22T09:08:22.671Z,21.47
2019-04-22T09:10:44.965Z,20.50
2019-04-22T09:13:14.397Z,21.63
2019-04-22T09:15:45.171Z,23.77
2019-04-22T09:18:14.792Z,22.23
2019-04-22T09:20:49.310Z,24.67
2019-04-22T09:23:27.121Z,22.33
2019-04-22T09:25:48.453Z,22.63
2019-04-22T09:28:19.547Z,22.00
2019-04-22T09:30:47.064Z,20.47
2019-04-22T09:33:21.024Z,19.07
2019-04-22T09:35:52.139Z,21.93
2019-04-22T09:40:46.860Z,20.80
2019-04-22T09:43:25.892Z,22.97
2019-04-22T09:45:54.387Z,20.50
2019-04-22T09:48:24.029Z,19.03
2019-04-22T09:50:47.892Z,18.07
2019-04-22T09:53:23.862Z,17.07
2019-04-22T09:55:52.505Z,16.70
2019-04-22T09:58:23.562Z,16.90
2019-04-22T10:01:13.340Z,17.67
2019-04-22T10:03:42.511Z,14.60
2019-04-22T10:06:21.099Z,15.53
2019-04-22T10:09:00.587Z,16.53
2019-04-22T10:11:14.322Z,20.20
2019-04-22T10:13:42.476Z,16.47
2019-04-22T10:16:17.390Z,14.17
2019-04-22T10:18:46.065Z,13.87
2019-04-22T10:21:19.051Z,10.73
2019-04-22T10:23:47.243Z,14.53
2019-04-22T10:26:14.347Z,11.23
2019-04-22T10:28:44.631Z,11.03
2019-04-22T10:31:21.618Z,11.17
2019-04-22T10:33:38.146Z,17.47
2019-04-22T10:35:47.814Z,11.63
2019-04-22T10:38:18.558Z,11.03
2019-04-22T10:40:46.834Z,8.57
2019-04-22T10:43:16.948Z,9.40
2019-04-22T10:45:46.118Z,10.47
2019-04-22T10:48:16.359Z,15.13
2019-04-22T10:50:46.666Z,16.27
2019-04-22T10:53:15.851Z,12.20
2019-04-22T10:55:46.879Z,11.47
2019-04-22T10:58:15.057Z,10.10
2019-04-22T11:00:45.189Z,13.80
2019-04-22T11:03:14.079Z,11.20
2019-04-22T11:05:44.241Z,11.37
2019-04-22T11:08:23.050Z,11.07
2019-04-22T11:11:00.601Z,16.63
2019-04-22T11:13:17.972Z,11.67
2019-04-22T11:15:46.826Z,10.70
2019-04-22T11:18:15.750Z,10.13
2019-04-22T11:20:44.518Z,12.63
2019-04-22T11:23:14.309Z,13.80
2019-04-22T11:25:43.970Z,14.57
2019-04-22T11:28:13.710Z,10.70
2019-04-22T11:30:42.786Z,12.87
2019-04-22T11:33:12.121Z,12.33
2019-04-22T11:35:41.792Z,11.63
2019-04-22T11:38:10.804Z,10.97
2019-04-22T11:40:43.618Z,12.20
2019-04-22T11:43:10.242Z,10.83
2019-04-22T11:45:39.602Z,9.80
2019-04-22T11:48:09.147Z,9.77
2019-04-22T11:50:39.914Z,10.33
2019-04-22T11:53:09.055Z,9.80
2019-04-22T11:55:37.800Z,10.97
2019-04-22T11:58:06.754Z,9.27
2019-04-22T12:00:37.019Z,9.60
2019-04-22T12:03:07.085Z,7.87
2019-04-22T12:05:37.468Z,12.97
2019-04-22T12:08:07.161Z,8.80
2019-04-22T12:10:45.044Z,11.77
2019-04-22T12:13:08.007Z,9.27
2019-04-22T12:15:37.308Z,10.37
2019-04-22T12:18:07.042Z,8.07
2019-04-22T12:20:37.218Z,10.23
2019-04-22T12:23:07.407Z,9.10
2019-04-22T12:25:46.396Z,9.33
2019-04-22T12:28:06.441Z,9.57
2019-04-22T12:30:35.260Z,8.80
2019-04-22T12:33:04.668Z,8.37
2019-04-22T12:35:34.628Z,7.60
2019-04-22T12:38:07.176Z,9.40
2019-04-22T12:40:43.427Z,8.57
2019-04-22T12:43:04.652Z,7.97
2019-04-22T12:45:34.247Z,8.73
2019-04-22T12:48:04.195Z,8.93
2019-04-22T12:50:36.688Z,9.53
2019-04-22T12:53:08.796Z,8.60
2019-04-22T12:55:34.383Z,9.97
2019-04-22T12:58:03.115Z,7.87
2019-04-22T13:00:32.232Z,9.53
2019-04-22T13:03:01.199Z,8.13
2019-04-22T13:05:31.240Z,10.13
2019-04-22T13:08:00.238Z,14.57
2019-04-22T13:10:40.456Z,7.07
2019-04-22T13:13:00.766Z,7.03
2019-04-22T13:15:30.851Z,8.27
2019-04-22T13:18:10.329Z,8.43
2019-04-22T13:20:30.474Z,8.60
2019-04-22T13:22:59.149Z,7.00
2019-04-22T13:25:30.044Z,8.23
2019-04-22T13:27:57.966Z,7.90
2019-04-22T13:30:26.506Z,7.73
2019-04-22T13:32:55.031Z,12.40
2019-04-22T13:35:24.673Z,9.97
2019-04-22T13:37:54.954Z,10.73
2019-04-22T13:40:23.581Z,6.40
2019-04-22T13:42:53.509Z,8.00
2019-04-22T13:45:22.195Z,6.77
2019-04-22T13:48:10.992Z,7.63
2019-04-22T13:50:56.633Z,7.33
2019-04-22T13:53:40.299Z,7.83
2019-04-22T13:58:06.907Z,6.43
2019-04-22T14:00:26.730Z,7.20
2019-04-22T14:03:13.324Z,7.93
2019-04-22T14:05:42.643Z,7.03
2019-04-22T14:08:12.640Z,6.07
2019-04-22T14:10:42.824Z,7.10
2019-04-22T14:13:12.130Z,8.77
2019-04-22T14:15:42.264Z,6.77
2019-04-22T14:18:11.152Z,5.67
2019-04-22T14:20:40.879Z,6.00
2019-04-22T14:23:11.478Z,6.50
2019-04-22T14:25:41.057Z,5.23
2019-04-22T14:28:15.075Z,6.70
2019-04-22T14:30:39.995Z,6.60
2019-04-22T14:33:09.785Z,7.03
2019-04-22T14:35:39.887Z,12.30
2019-04-22T14:38:09.748Z,8.47
2019-04-22T14:40:40.914Z,6.63
2019-04-22T14:43:28.971Z,5.13
2019-04-22T14:46:08.179Z,8.23
2019-04-22T14:48:35.984Z,6.87
2019-04-22T14:50:56.296Z,10.57
2019-04-22T14:53:30.843Z,5.43
2019-04-22T14:55:40.535Z,6.97
2019-04-22T14:58:10.874Z,6.60
2019-04-22T15:00:40.026Z,7.80
2019-04-22T15:03:10.056Z,6.30
2019-04-22T15:05:40.029Z,6.73
2019-04-22T15:08:09.073Z,8.17
2019-04-22T15:10:38.073Z,7.77
2019-04-22T15:13:07.387Z,8.17
2019-04-22T15:15:56.579Z,5.73
2019-04-22T15:18:44.172Z,7.70
2019-04-22T15:21:16.575Z,6.00
2019-04-22T15:23:46.567Z,5.60
2019-04-22T15:26:16.644Z,7.17
2019-04-22T15:28:45.373Z,5.93
2019-04-22T15:31:15.198Z,7.83
2019-04-22T15:33:48.043Z,6.08
2019-04-22T15:36:14.208Z,6.87
2019-04-22T15:38:42.754Z,7.03
2019-04-22T15:41:12.490Z,6.07
2019-04-22T15:43:41.617Z,6.07
2019-04-22T15:46:11.658Z,6.73
2019-04-22T15:48:42.050Z,5.93
2019-04-22T15:51:11.070Z,6.20
2019-04-22T15:53:39.919Z,5.97
2019-04-22T15:56:08.708Z,7.27
2019-04-22T15:58:37.599Z,6.70
2019-04-22T16:01:15.086Z,6.07
2019-04-22T16:03:36.911Z,5.73
2019-04-22T16:06:06.149Z,4.90
2019-04-22T16:08:37.293Z,5.73
2019-04-22T16:11:06.158Z,6.00
2019-04-22T16:13:38.041Z,4.77
2019-04-22T16:16:06.785Z,6.40
2019-04-22T16:18:36.196Z,7.33
2019-04-22T16:21:05.006Z,4.83
2019-04-22T16:23:50.139Z,5.42
2019-04-22T16:26:38.055Z,6.43
2019-04-22T16:29:07.341Z,10.10
2019-04-22T16:31:37.640Z,7.03
2019-04-22T16:34:07.661Z,6.03
2019-04-22T16:36:36.682Z,4.08
2019-04-22T16:39:06.881Z,3.90
2019-04-22T16:41:36.989Z,5.85
2019-04-22T16:44:06.918Z,5.97
2019-04-22T16:46:37.324Z,7.20
2019-04-22T16:49:07.695Z,4.43
2019-04-22T16:51:36.321Z,4.92
2019-04-22T16:54:06.363Z,5.00
2019-04-22T16:56:37.097Z,6.20
2019-04-22T16:59:06.684Z,6.03
2019-04-22T17:01:54.543Z,4.13
2019-04-22T17:04:38.641Z,6.43
2019-04-22T17:07:11.581Z,5.37
2019-04-22T17:09:41.610Z,4.53
2019-04-22T17:12:10.363Z,5.10
2019-04-22T17:14:47.563Z,4.37
2019-04-22T17:17:10.576Z,3.47
2019-04-22T17:19:39.603Z,4.17
2019-04-22T17:22:08.353Z,4.10
2019-04-22T17:24:37.407Z,3.90
2019-04-22T17:27:06.409Z,6.53
2019-04-22T17:29:36.623Z,3.60
2019-04-22T17:32:11.409Z,11.73
2019-04-22T17:34:35.951Z,3.10
2019-04-22T17:37:11.227Z,3.13
2019-04-22T17:39:45.189Z,3.30
2019-04-22T17:42:25.181Z,3.47
2019-04-22T17:45:19.135Z,4.00
2019-04-22T17:48:20.251Z,3.60
2019-04-22T17:50:52.015Z,3.57
2019-04-22T17:53:27.680Z,2.90
2019-04-22T17:56:00.672Z,3.77
2019-04-22T17:58:25.645Z,6.03
2019-04-22T18:00:56.691Z,3.17
2019-04-22T18:03:16.532Z,3.00
2019-04-22T18:05:41.717Z,2.97
2019-04-22T18:08:25.521Z,2.70
2019-04-22T18:10:54.280Z,2.90
2019-04-22T18:15:53.332Z,3.83
2019-04-22T18:18:26.187Z,2.93
2019-04-22T18:20:52.007Z,3.03
2019-04-22T18:23:12.777Z,5.90
2019-04-22T18:25:57.369Z,3.63
2019-04-22T18:28:30.094Z,3.13
2019-04-22T18:30:54.812Z,3.50
2019-04-22T18:33:25.711Z,3.50
2019-04-22T18:35:55.285Z,2.60
2019-04-22T18:38:39.606Z,2.93
2019-04-22T18:40:57.327Z,4.83
2019-04-22T18:43:28.857Z,4.27
2019-04-22T18:46:06.499Z,2.47
2019-04-22T18:48:27.297Z,4.03
2019-04-22T18:51:13.486Z,2.67
2019-04-22T18:54:00.139Z,4.73
2019-04-22T18:56:32.427Z,2.93
2019-04-22T18:58:51.076Z,2.87
2019-04-22T19:01:10.228Z,2.90
2019-04-22T19:03:51.437Z,2.83
2019-04-22T19:06:52.333Z,2.17
2019-04-22T19:09:08.027Z,3.10
2019-04-22T19:11:39.011Z,4.17
2019-04-22T19:16:35.879Z,4.10
2019-04-22T19:19:20.488Z,2.33
2019-04-22T19:21:32.703Z,2.50
2019-04-22T19:24:00.303Z,3.53
2019-04-22T19:26:50.088Z,3.10
2019-04-22T19:29:10.393Z,3.10
2019-04-22T19:31:35.642Z,3.10
2019-04-22T19:34:09.418Z,2.73
2019-04-22T19:36:41.942Z,2.77
2019-04-22T19:39:07.515Z,2.60
2019-04-22T19:41:42.042Z,1.73
2019-04-22T19:44:08.465Z,2.20
2019-04-22T19:46:35.291Z,2.60
2019-04-22T19:49:10.593Z,3.57
2019-04-22T19:51:49.482Z,6.17
2019-04-22T19:54:07.690Z,2.37
2019-04-22T19:56:33.718Z,2.80
2019-04-22T19:59:12.113Z,3.67
2019-04-22T20:02:09.590Z,3.13
2019-04-22T20:05:07.701Z,3.43
2019-04-22T20:07:38.187Z,4.07
2019-04-22T20:10:14.903Z,2.90
2019-04-22T20:12:39.714Z,2.80
2019-04-22T20:15:12.547Z,3.53
2019-04-22T20:18:07.285Z,3.03
2019-04-22T20:20:18.073Z,4.07
2019-04-22T20:22:41.031Z,4.33
2019-04-22T20:25:04.636Z,4.50
2019-04-22T20:27:50.201Z,3.73
2019-04-22T20:30:17.364Z,2.90
2019-04-22T20:32:41.297Z,6.43
2019-04-22T20:35:15.490Z,3.53
2019-04-22T20:37:47.941Z,4.83
2019-04-22T20:40:21.443Z,2.70
2019-04-22T20:45:18.342Z,3.30
2019-04-22T20:47:40.488Z,4.53
2019-04-22T20:50:20.902Z,6.77
2019-04-22T20:52:57.312Z,2.80
2019-04-22T20:55:13.100Z,4.10
2019-04-22T20:57:50.124Z,4.53
2019-04-22T21:00:13.843Z,3.27
2019-04-22T21:02:37.608Z,5.73
2019-04-22T21:05:08.375Z,2.43
2019-04-22T21:07:47.914Z,3.00
2019-04-22T21:10:15.890Z,3.43
2019-04-22T21:12:38.681Z,3.67
2019-04-22T21:15:26.307Z,3.00
2019-04-22T21:17:45.875Z,3.23
2019-04-22T21:20:26.106Z,3.30
2019-04-22T21:22:54.962Z,3.97
2019-04-22T21:25:15.347Z,4.20
2019-04-22T21:27:51.077Z,2.90
2019-04-22T21:30:19.479Z,3.20
2019-04-22T21:32:49.458Z,5.03
2019-04-22T21:35:31.847Z,3.37
2019-04-22T21:37:58.308Z,3.43
2019-04-22T21:40:23.064Z,3.10
2019-04-22T21:42:59.875Z,3.00
2019-04-22T21:45:20.102Z,3.63
2019-04-22T21:48:04.796Z,2.73
2019-04-22T21:53:05.140Z,3.13
2019-04-22T21:55:29.749Z,2.87
2019-04-22T21:58:05.082Z,4.03
2019-04-22T22:00:43.268Z,3.77
2019-04-22T22:03:11.771Z,2.30
2019-04-22T22:05:28.790Z,6.47
2019-04-22T22:07:53.508Z,5.00
2019-04-22T22:10:38.942Z,4.27
2019-04-22T22:13:06.202Z,1.80
2019-04-22T22:15:28.693Z,4.40
2019-04-22T22:18:06.250Z,2.80
2019-04-22T22:20:30.555Z,3.10
2019-04-22T22:23:09.177Z,3.10
2019-04-22T22:25:28.788Z,3.97
2019-04-22T22:28:08.788Z,5.10
2019-04-22T22:33:05.889Z,3.13
2019-04-22T22:35:36.024Z,3.67
2019-04-22T22:38:06.551Z,2.43
2019-04-22T22:40:19.829Z,5.10
2019-04-22T22:42:49.305Z,3.27
2019-04-22T22:45:28.080Z,4.63
2019-04-22T22:48:17.227Z,4.30
2019-04-22T22:50:34.529Z,2.70
2019-04-22T22:53:13.177Z,3.50
2019-04-22T22:55:37.131Z,6.00
2019-04-22T22:58:10.113Z,2.83
2019-04-22T23:00:35.667Z,6.70
2019-04-22T23:03:36.452Z,2.63
2019-04-22T23:05:45.323Z,2.90
2019-04-22T23:08:17.496Z,4.87
2019-04-22T23:10:52.612Z,2.53
2019-04-22T23:13:14.643Z,2.13
2019-04-22T23:15:37.147Z,5.00
2019-04-22T23:17:50.099Z,3.47
2019-04-22T23:20:28.985Z,2.47
2019-04-22T23:23:14.067Z,2.10
2019-04-22T23:25:44.792Z,2.37
2019-04-22T23:28:28.226Z,2.00
2019-04-22T23:31:21.068Z,3.57
2019-04-22T23:33:55.953Z,2.60
2019-04-22T23:36:45.340Z,3.43
2019-04-22T23:39:17.938Z,6.10
2019-04-22T23:41:51.007Z,7.33
2019-04-22T23:44:21.016Z,3.57
2019-04-22T23:46:52.243Z,2.37
2019-04-22T23:49:22.252Z,6.20
2019-04-22T23:52:04.692Z,5.33
2019-04-22T23:54:31.538Z,2.30
2019-04-22T23:56:56.925Z,4.27
2019-04-22T23:59:44.957Z,4.03
